Time;durP1;ratioP1;P1;durP2;ratioP2;P2;SDS_P1;SDS_P2;PMS_P1;PMS_P2;Temp;Humidity;BMP_temperature;BMP_pressure;BME280_temperature;BME280_humidity;BME280_pressure;Samples;Min_cycle;Max_cycle;Signal;HPM_P1;HPM_P2
2022/05/26 00:01:12;;;;;;;;;13.00;13.00;25.80;53.80;;;;;;4976706;28;8880;-75
2022/05/26 00:03:40;;;;;;;;;18.33;18.33;25.50;54.80;;;;;;4976858;28;8781;-75
2022/05/26 00:06:07;;;;;;;;;16.67;16.00;25.70;53.80;;;;;;4976547;28;8761;-75
2022/05/26 00:08:36;;;;;;;;;18.00;17.33;25.70;53.80;;;;;;4975783;28;8822;-75
2022/05/26 00:11:04;;;;;;;;;11.33;11.33;25.40;55.30;;;;;;4970346;28;9459;-75
2022/05/26 00:13:30;;;;;;;;;15.67;15.67;25.20;55.60;;;;;;4963118;28;8823;-75
2022/05/26 00:15:55;;;;;;;;;15.67;15.67;25.20;56.00;;;;;;4957083;28;8882;-75
2022/05/26 00:18:21;;;;;;;;;13.33;13.33;25.00;56.80;;;;;;4957309;28;8784;-75
2022/05/26 00:20:47;;;;;;;;;16.33;16.33;25.10;56.80;;;;;;4956894;28;8839;-74
2022/05/26 00:23:12;;;;;;;;;14.00;14.00;24.90;57.40;;;;;;4957006;28;8810;-74
2022/05/26 00:25:39;;;;;;;;;14.00;14.00;25.10;56.40;;;;;;4956880;28;8826;-74
2022/05/26 00:28:05;;;;;;;;;13.67;13.67;25.00;56.30;;;;;;4957153;28;8817;-74
2022/05/26 00:30:31;;;;;;;;;14.67;14.67;24.90;57.40;;;;;;4956878;28;8792;-76
2022/05/26 00:32:56;;;;;;;;;13.33;13.33;25.40;55.70;;;;;;4956802;28;8808;-76
2022/05/26 00:35:22;;;;;;;;;13.33;13.33;25.30;55.50;;;;;;4956637;28;8917;-75
2022/05/26 00:37:48;;;;;;;;;13.33;13.33;25.90;54.00;;;;;;4956977;28;8814;-75
2022/05/26 00:40:15;;;;;;;;;15.33;15.33;26.20;52.80;;;;;;4956588;28;9592;-75
2022/05/26 00:42:40;;;;;;;;;9.33;9.33;26.20;52.40;;;;;;4956654;28;8784;-75
2022/05/26 00:45:07;;;;;;;;;13.67;13.67;26.50;51.60;;;;;;4957015;28;8833;-75
2022/05/26 00:47:41;;;;;;;;;13.67;13.67;26.50;51.20;;;;;;4956562;28;8969;-76
2022/05/26 00:50:29;;;;;;;;;13.33;13.33;26.40;51.60;;;;;;4956535;28;8784;-74
2022/05/26 00:52:59;;;;;;;;;12.00;12.00;26.50;51.00;;;;;;4956534;28;8793;-75
2022/05/26 00:55:33;;;;;;;;;11.00;11.00;26.80;50.70;;;;;;4957044;28;8831;-75
2022/05/26 00:58:01;;;;;;;;;11.67;11.67;26.70;50.80;;;;;;4956889;28;8778;-76
2022/05/26 01:00:31;;;;;;;;;12.67;12.67;26.00;52.00;;;;;;4956426;28;8850;-75
2022/05/26 01:03:01;;;;;;;;;11.33;11.33;26.20;51.80;;;;;;4956417;28;8776;-75
2022/05/26 01:05:46;;;;;;;;;14.33;14.33;25.60;53.30;;;;;;4965745;28;8797;-75
2022/05/26 01:08:47;;;;;;;;;13.00;13.00;25.10;55.40;;;;;;4958457;28;8788;-76
2022/05/26 01:11:13;;;;;;;;;12.33;12.33;25.50;54.80;;;;;;4952351;28;8834;-76
2022/05/26 01:13:46;;;;;;;;;15.33;15.33;25.50;53.90;;;;;;4956127;28;8836;-75
2022/05/26 01:16:35;;;;;;;;;13.67;13.67;25.90;53.20;;;;;;4956620;28;8765;-75
2022/05/26 01:19:31;;;;;;;;;18.00;18.00;25.80;52.80;;;;;;4956163;28;8819;-75
2022/05/26 01:22:02;;;;;;;;;12.67;12.67;25.40;54.20;;;;;;4956443;28;8788;-75
2022/05/26 01:25:00;;;;;;;;;13.00;13.00;25.80;53.80;;;;;;4958206;28;8782;-76
2022/05/26 01:27:38;;;;;;;;;13.00;13.00;26.00;52.70;;;;;;4960403;28;8787;-76
2022/05/26 01:30:17;;;;;;;;;12.00;12.00;25.70;53.10;;;;;;4960414;28;8795;-76
2022/05/26 01:33:02;;;;;;;;;11.33;11.33;25.40;53.60;;;;;;4960445;28;8874;-76
2022/05/26 01:35:36;;;;;;;;;12.67;12.67;25.20;54.90;;;;;;4975011;28;8835;-75
2022/05/26 01:38:35;;;;;;;;;14.00;14.00;25.10;54.90;;;;;;4960120;28;8772;-76
2022/05/26 01:41:25;;;;;;;;;10.67;10.67;25.00;55.50;;;;;;4960033;28;8882;-75
2022/05/26 01:44:28;;;;;;;;;11.33;11.33;24.90;56.00;;;;;;4959938;28;8812;-75
2022/05/26 01:46:58;;;;;;;;;13.00;13.00;25.30;55.20;;;;;;4960153;28;8784;-76
2022/05/26 01:49:35;;;;;;;;;12.00;12.00;25.70;53.90;;;;;;4960059;28;8795;-75
2022/05/26 01:52:13;;;;;;;;;14.00;14.00;26.00;52.70;;;;;;4959865;28;8861;-75
2022/05/26 01:55:17;;;;;;;;;11.33;11.33;26.20;51.50;;;;;;4959746;28;8859;-75
2022/05/26 01:57:54;;;;;;;;;11.33;11.33;26.40;50.80;;;;;;4959615;28;8800;-75
2022/05/26 02:00:21;;;;;;;;;12.00;12.00;26.30;50.40;;;;;;4959546;28;8800;-75
2022/05/26 02:02:55;;;;;;;;;9.00;9.00;26.40;49.80;;;;;;4959870;28;8784;-74
2022/05/26 02:05:25;;;;;;;;;9.67;9.67;26.50;49.50;;;;;;4959617;28;8826;-74
2022/05/26 02:08:01;;;;;;;;;8.67;8.67;26.50;48.90;;;;;;4959817;28;8752;-75
2022/05/26 02:10:51;;;;;;;;;8.33;8.33;26.40;48.80;;;;;;4959531;28;8764;-75
2022/05/26 02:13:25;;;;;;;;;10.00;10.00;25.50;50.30;;;;;;4959183;28;11484;-75
2022/05/26 02:15:56;;;;;;;;;7.00;7.00;25.30;52.00;;;;;;4959556;28;8768;-74
2022/05/26 02:18:27;;;;;;;;;9.00;9.00;25.40;51.70;;;;;;4962509;28;11494;-75
2022/05/26 02:20:56;;;;;;;;;8.00;8.00;25.00;51.80;;;;;;4963107;28;9577;-75
2022/05/26 02:23:34;;;;;;;;;8.00;8.00;25.10;52.50;;;;;;4959262;28;11464;-75
2022/05/26 02:26:01;;;;;;;;;7.33;7.33;24.90;52.20;;;;;;4959535;28;8978;-74
2022/05/26 02:28:27;;;;;;;;;7.67;7.67;24.60;53.70;;;;;;4959088;28;11471;-74
2022/05/26 02:30:55;;;;;;;;;6.00;6.00;24.80;53.20;;;;;;4958145;28;11533;-74
2022/05/26 02:33:22;;;;;;;;;8.33;8.33;24.40;53.20;;;;;;4958808;28;11488;-74
2022/05/26 02:35:51;;;;;;;;;6.00;6.00;24.40;53.90;;;;;;4958264;28;8871;-74
2022/05/26 02:38:22;;;;;;;;;8.00;8.00;24.60;53.10;;;;;;4958935;28;11473;-74
2022/05/26 02:40:49;;;;;;;;;7.00;7.00;24.40;53.70;;;;;;4959086;28;8839;-74
2022/05/26 02:43:20;;;;;;;;;6.00;6.00;23.90;55.60;;;;;;4958517;28;8796;-74
2022/05/26 02:46:03;;;;;;;;;8.00;8.00;23.70;56.30;;;;;;4959106;28;8749;-74
2022/05/26 02:48:44;;;;;;;;;7.00;7.00;23.40;57.50;;;;;;4959097;28;8879;-74
2022/05/26 02:51:30;;;;;;;;;8.00;8.00;23.50;58.40;;;;;;4958770;28;11494;-75
2022/05/26 02:54:14;;;;;;;;;8.00;8.00;23.50;58.30;;;;;;4958721;28;8782;-74
2022/05/26 02:57:44;;;;;;;;;9.00;9.00;23.50;58.70;;;;;;4958694;28;8764;-74
2022/05/26 03:00:28;;;;;;;;;8.00;8.00;23.40;59.20;;;;;;4929619;29;8939;-74
2022/05/26 03:03:14;;;;;;;;;7.00;7.00;23.50;58.40;;;;;;4921472;29;8897;-74
2022/05/26 03:05:51;;;;;;;;;10.67;10.67;23.70;58.40;;;;;;4937379;29;8761;-74
2022/05/26 03:08:22;;;;;;;;;6.33;6.33;23.50;58.50;;;;;;4937253;29;8796;-75
2022/05/26 03:10:53;;;;;;;;;8.33;8.33;23.60;58.30;;;;;;4927296;29;8799;-76
2022/05/26 03:13:19;;;;;;;;;10.00;10.00;23.90;57.60;;;;;;4936200;29;8777;-75
2022/05/26 03:15:45;;;;;;;;;7.00;7.00;24.20;56.60;;;;;;4926039;29;8779;-74
2022/05/26 03:18:11;;;;;;;;;8.00;8.00;24.50;55.00;;;;;;4918117;29;8776;-74
2022/05/26 03:20:37;;;;;;;;;10.67;10.67;24.40;55.10;;;;;;4918227;29;8810;-74
2022/05/26 03:23:03;;;;;;;;;8.00;8.00;24.40;55.10;;;;;;4918017;29;8788;-74
2022/05/26 03:25:29;;;;;;;;;6.67;6.67;24.00;56.20;;;;;;4917932;29;8784;-74
2022/05/26 03:27:54;;;;;;;;;8.00;8.00;23.60;58.00;;;;;;4917898;29;8870;-75
2022/05/26 03:30:20;;;;;;;;;9.00;9.00;23.60;58.10;;;;;;4917841;29;8882;-74
2022/05/26 03:32:46;;;;;;;;;8.67;8.67;23.60;58.80;;;;;;4917810;29;8772;-74
2022/05/26 03:40:49;;;;;;;;;9.00;9.00;24.30;56.20;;;;;;4970726;28;8837;-75
2022/05/26 03:43:16;;;;;;;;;7.67;7.67;24.30;56.70;;;;;;4966979;28;11543;-76
2022/05/26 03:45:42;;;;;;;;;7.00;7.00;24.30;55.60;;;;;;4957696;28;8760;-75
2022/05/26 03:48:08;;;;;;;;;8.00;8.00;24.60;55.10;;;;;;4957894;28;9435;-76
2022/05/26 03:50:35;;;;;;;;;7.67;7.67;24.50;55.20;;;;;;4957687;28;8764;-76
2022/05/26 03:53:01;;;;;;;;;6.67;6.67;24.70;54.70;;;;;;4957892;28;8782;-75
2022/05/26 03:55:26;;;;;;;;;7.67;7.67;24.30;55.60;;;;;;4957574;28;8859;-76
2022/05/26 03:57:53;;;;;;;;;8.00;8.00;24.00;57.00;;;;;;4957704;28;8942;-76
2022/05/26 04:00:22;;;;;;;;;8.33;8.33;24.40;56.40;;;;;;4957555;28;8906;-75
2022/05/26 04:02:49;;;;;;;;;10.33;10.33;24.50;55.60;;;;;;4957437;28;8776;-76
2022/05/26 04:05:16;;;;;;;;;10.00;10.00;24.40;56.70;;;;;;4957619;28;8792;-76
2022/05/26 04:07:42;;;;;;;;;10.33;10.33;24.50;56.20;;;;;;4957181;28;11553;-76
2022/05/26 04:10:10;;;;;;;;;9.67;9.67;24.20;57.40;;;;;;4957264;28;8784;-76
2022/05/26 04:12:37;;;;;;;;;9.00;9.00;24.40;56.70;;;;;;4957523;28;8760;-76
2022/05/26 04:15:04;;;;;;;;;8.33;8.33;24.50;57.30;;;;;;4957499;28;8852;-76
2022/05/26 04:17:30;;;;;;;;;8.00;8.00;24.60;56.00;;;;;;4957117;28;8795;-76
2022/05/26 04:19:56;;;;;;;;;7.33;7.33;24.20;57.00;;;;;;4957304;28;8842;-75
2022/05/26 04:22:23;;;;;;;;;8.33;8.33;24.50;56.40;;;;;;4957296;28;8772;-75
2022/05/26 04:24:55;;;;;;;;;9.00;9.00;24.40;55.90;;;;;;4956987;28;8854;-75
2022/05/26 04:27:23;;;;;;;;;8.00;8.00;24.40;56.40;;;;;;4957178;28;8793;-76
2022/05/26 04:29:49;;;;;;;;;7.67;7.67;24.30;56.40;;;;;;4956874;28;8776;-76
2022/05/26 04:32:15;;;;;;;;;6.67;6.67;24.20;56.70;;;;;;4955787;28;11483;-75
2022/05/26 04:34:43;;;;;;;;;7.67;7.67;24.30;56.40;;;;;;4956589;28;8832;-76
2022/05/26 04:37:09;;;;;;;;;9.33;9.33;24.30;57.00;;;;;;4971848;28;8787;-76
2022/05/26 04:39:34;;;;;;;;;6.00;6.00;24.50;56.20;;;;;;4966110;28;8886;-75
2022/05/26 04:42:03;;;;;;;;;7.00;7.00;24.70;55.60;;;;;;4970124;28;8797;-76
2022/05/26 04:44:32;;;;;;;;;6.67;6.67;24.40;55.40;;;;;;4958181;28;8819;-76
2022/05/26 04:46:58;;;;;;;;;7.00;7.00;23.60;57.10;;;;;;4965123;28;11636;-76
2022/05/26 04:49:24;;;;;;;;;7.00;7.00;23.90;58.00;;;;;;4962721;28;11523;-76
2022/05/26 04:51:50;;;;;;;;;6.00;6.00;23.40;59.20;;;;;;4975848;28;11606;-76
2022/05/26 04:54:16;;;;;;;;;5.00;5.00;23.70;57.60;;;;;;4975555;28;8836;-76
2022/05/26 04:56:42;;;;;;;;;3.00;3.00;23.70;56.80;;;;;;4975231;28;8801;-76
2022/05/26 04:59:07;;;;;;;;;5.00;5.00;23.50;58.00;;;;;;4971817;28;11563;-75
2022/05/26 05:01:34;;;;;;;;;5.00;5.00;23.20;57.70;;;;;;4961348;28;8912;-76
2022/05/26 05:04:00;;;;;;;;;4.33;4.33;23.50;57.90;;;;;;4969808;28;8800;-76
2022/05/26 05:06:26;;;;;;;;;4.00;4.00;23.80;56.50;;;;;;4968092;28;11533;-75
2022/05/26 05:08:52;;;;;;;;;6.00;6.00;23.90;55.50;;;;;;4956415;28;12145;-78
2022/05/26 05:11:18;;;;;;;;;7.00;7.00;24.00;55.80;;;;;;4973918;28;11510;-74
2022/05/26 05:13:44;;;;;;;;;3.67;3.67;24.10;55.00;;;;;;4955937;28;8845;-76
2022/05/26 05:16:17;;;;;;;;;7.00;7.00;24.00;55.10;;;;;;4956235;28;8806;-75
2022/05/26 05:18:44;;;;;;;;;6.67;6.67;24.20;54.40;;;;;;4956174;28;8810;-76
2022/05/26 05:21:12;;;;;;;;;8.67;8.67;24.30;53.30;;;;;;4956199;28;8772;-76
2022/05/26 05:23:42;;;;;;;;;7.00;7.00;24.40;53.40;;;;;;4956188;29;8760;-76
2022/05/26 05:26:14;;;;;;;;;8.00;8.00;24.10;53.10;;;;;;4956329;28;11497;-76
2022/05/26 05:28:46;;;;;;;;;8.00;8.00;23.90;54.30;;;;;;4956193;28;8802;-77
2022/05/26 05:31:17;;;;;;;;;5.33;5.33;24.20;52.90;;;;;;4971125;28;8826;-76
2022/05/26 05:33:48;;;;;;;;;6.00;6.00;23.90;54.00;;;;;;4955911;28;11541;-75
2022/05/26 05:36:20;;;;;;;;;4.00;4.00;23.40;55.10;;;;;;4956239;28;11644;-75
2022/05/26 05:38:47;;;;;;;;;5.00;5.00;23.50;55.90;;;;;;4955913;29;11572;-75
2022/05/26 05:41:13;;;;;;;;;4.33;4.33;23.50;55.10;;;;;;4956156;29;11581;-74
2022/05/26 05:43:40;;;;;;;;;2.00;2.00;23.70;54.60;;;;;;4955829;28;11647;-74
2022/05/26 05:46:06;;;;;;;;;5.00;5.00;24.20;53.60;;;;;;4956246;29;12144;-75
2022/05/26 05:48:32;;;;;;;;;4.00;4.00;24.60;51.90;;;;;;4955902;28;11523;-75
2022/05/26 05:50:58;;;;;;;;;5.00;5.00;24.70;51.20;;;;;;4956061;28;11504;-75
2022/05/26 05:53:24;;;;;;;;;5.33;5.33;25.30;50.30;;;;;;4955940;28;8894;-75
2022/05/26 05:55:50;;;;;;;;;4.00;4.00;25.70;48.30;;;;;;4955947;29;11490;-76
2022/05/26 05:58:15;;;;;;;;;6.33;6.33;25.70;47.70;;;;;;4956048;28;11498;-75
2022/05/26 06:00:42;;;;;;;;;3.67;3.67;25.50;47.50;;;;;;4955781;28;8804;-73
2022/05/26 06:03:08;;;;;;;;;4.33;4.33;24.70;48.60;;;;;;4955923;28;8787;-73
2022/05/26 06:05:34;;;;;;;;;5.00;5.00;24.80;49.20;;;;;;4955596;28;11487;-74
2022/05/26 06:08:00;;;;;;;;;6.67;6.67;25.10;48.80;;;;;;4955704;28;11482;-74
2022/05/26 06:10:28;;;;;;;;;5.67;5.67;24.90;48.60;;;;;;4956415;28;11495;-74
2022/05/26 06:12:54;;;;;;;;;6.00;6.00;25.10;48.60;;;;;;4959414;28;8850;-73
2022/05/26 06:15:20;;;;;;;;;5.33;5.33;25.30;48.50;;;;;;4959445;28;11515;-75
2022/05/26 06:17:46;;;;;;;;;4.75;4.75;25.70;47.80;;;;;;4959564;28;8855;-75
2022/05/26 06:20:13;;;;;;;;;4.00;4.00;25.50;46.90;;;;;;4959124;28;11567;-76
2022/05/26 06:22:44;;;;;;;;;12.67;12.67;25.20;46.30;;;;;;4959360;28;11501;-75
2022/05/26 06:25:11;;;;;;;;;6.33;6.33;25.30;46.10;;;;;;4961486;28;8798;-75
2022/05/26 06:30:23;;;;;;;;;4.67;4.67;25.90;44.70;;;;;;4967675;28;12268;-74
2022/05/26 06:38:23;;;;;;;;;5.33;5.33;25.80;43.60;;;;;;4977174;28;11444;-74
2022/05/26 06:40:51;;;;;;;;;6.00;6.00;26.10;43.80;;;;;;4977061;28;11537;-74
2022/05/26 06:43:18;;;;;;;;;6.67;6.67;26.10;42.90;;;;;;4974586;28;11571;-75
2022/05/26 06:45:48;;;;;;;;;6.00;6.00;25.40;43.10;;;;;;4976835;28;11481;-75
2022/05/26 06:48:15;;;;;;;;;5.33;5.33;25.40;43.40;;;;;;4976684;28;11553;-75
2022/05/26 06:50:41;;;;;;;;;7.00;7.00;25.50;42.30;;;;;;4976927;28;11495;-76
2022/05/26 06:53:07;;;;;;;;;6.00;6.00;25.20;43.20;;;;;;4976501;28;11467;-79
2022/05/26 06:55:33;;;;;;;;;6.00;6.00;25.10;42.60;;;;;;4976958;28;11528;-77
2022/05/26 06:57:59;;;;;;;;;6.67;6.67;25.40;43.30;;;;;;4976619;28;11485;-77
2022/05/26 07:00:24;;;;;;;;;6.00;6.00;25.70;42.40;;;;;;4976473;28;8813;-76
2022/05/26 07:02:53;;;;;;;;;7.00;7.00;25.00;42.40;;;;;;4976577;28;8758;-76
2022/05/26 07:05:20;;;;;;;;;6.33;6.33;25.30;42.60;;;;;;4977687;28;8793;-75
2022/05/26 07:07:45;;;;;;;;;4.00;4.00;25.20;42.10;;;;;;4977191;28;12248;-75
2022/05/26 07:10:13;;;;;;;;;5.67;5.67;25.30;42.20;;;;;;4977662;28;11482;-75
2022/05/26 07:12:40;;;;;;;;;5.00;5.00;25.70;41.80;;;;;;4977942;28;8795;-75
2022/05/26 07:15:08;;;;;;;;;6.00;6.00;25.20;41.40;;;;;;4976632;28;11509;-74
2022/05/26 07:17:36;;;;;;;;;6.33;6.33;24.90;41.70;;;;;;4977611;28;11488;-76
2022/05/26 07:20:02;;;;;;;;;5.00;5.00;24.90;42.50;;;;;;4977541;28;11505;-76
2022/05/26 07:22:30;;;;;;;;;4.67;4.67;24.80;43.00;;;;;;4977064;28;11475;-76
2022/05/26 07:24:56;;;;;;;;;1.67;1.67;24.80;43.10;;;;;;4976346;28;11508;-76
2022/05/26 07:27:22;;;;;;;;;4.00;4.00;25.20;41.30;;;;;;4977502;28;11587;-76
2022/05/26 07:29:49;;;;;;;;;7.33;7.33;25.40;41.60;;;;;;4977273;28;11634;-79
2022/05/26 07:32:14;;;;;;;;;7.67;7.67;25.50;41.20;;;;;;4977270;28;9450;-76
2022/05/26 07:34:40;;;;;;;;;3.33;3.33;25.80;41.60;;;;;;4977085;28;11547;-75
2022/05/26 07:42:36;;;;;;;;;6.00;6.00;26.00;40.30;;;;;;4977086;28;11466;-76
2022/05/26 07:45:07;;;;;;;;;5.00;5.00;25.30;42.00;;;;;;4976030;28;11518;-76
2022/05/26 07:47:33;;;;;;;;;5.33;5.33;25.80;42.60;;;;;;4977220;28;12007;-76
2022/05/26 07:49:58;;;;;;;;;6.00;6.00;26.30;40.60;;;;;;4976712;28;12148;-76
2022/05/26 07:52:24;;;;;;;;;5.00;5.00;27.20;39.50;;;;;;4976989;28;8782;-75
2022/05/26 07:54:50;;;;;;;;;6.00;6.00;27.70;38.20;;;;;;4977057;28;8792;-76
2022/05/26 07:57:24;;;;;;;;;6.00;6.00;27.90;37.10;;;;;;4975171;28;8781;-78
2022/05/26 07:59:50;;;;;;;;;4.00;4.00;28.50;36.40;;;;;;4976641;28;11618;-76
2022/05/26 08:02:17;;;;;;;;;5.00;5.00;28.10;37.00;;;;;;4976942;28;11488;-77
2022/05/26 08:04:43;;;;;;;;;3.00;3.00;27.50;37.40;;;;;;4976833;28;11532;-75
2022/05/26 08:07:09;;;;;;;;;4.00;4.00;27.60;37.10;;;;;;4977028;28;11558;-85
2022/05/26 08:09:37;;;;;;;;;3.25;3.25;27.70;36.20;;;;;;4976887;28;8782;-86
2022/05/26 08:12:11;;;;;;;;;1.00;1.00;27.20;38.00;;;;;;4975272;28;11620;-77
2022/05/26 08:14:38;;;;;;;;;4.25;4.25;26.40;39.20;;;;;;4973384;28;11497;-81
2022/05/26 08:17:04;;;;;;;;;4.00;4.00;26.20;40.20;;;;;;4976354;28;11697;-81
2022/05/26 08:19:30;;;;;;;;;6.33;6.33;26.10;40.50;;;;;;4976393;28;11656;-81
2022/05/26 08:21:56;;;;;;;;;5.00;5.00;26.50;40.20;;;;;;4975274;28;11488;-81
2022/05/26 08:24:24;;;;;;;;;3.00;3.00;26.90;39.90;;;;;;4975933;28;11484;-74
2022/05/26 08:26:50;;;;;;;;;3.33;3.33;27.00;38.30;;;;;;4974868;28;12191;-76
2022/05/26 08:29:16;;;;;;;;;2.00;2.00;26.90;38.20;;;;;;4975459;28;11589;-78
2022/05/26 08:31:42;;;;;;;;;2.00;2.00;26.80;38.60;;;;;;4976548;28;11610;-78
2022/05/26 08:34:08;;;;;;;;;3.75;3.75;26.40;38.90;;;;;;4975254;28;11587;-74
2022/05/26 08:36:35;;;;;;;;;5.00;5.00;26.60;39.00;;;;;;4975953;28;11482;-76
2022/05/26 08:39:02;;;;;;;;;0.00;0.00;26.20;39.80;;;;;;4975644;28;8778;-77
2022/05/26 08:41:33;;;;;;;;;2.50;2.50;26.40;38.90;;;;;;4975310;28;11549;-76
2022/05/26 08:44:09;;;;;;;;;3.00;3.00;26.60;37.50;;;;;;4973282;28;11569;-72
2022/05/26 08:47:06;;;;;;;;;2.00;2.00;26.90;36.60;;;;;;4975323;28;11514;-73
2022/05/26 08:49:36;;;;;;;;;3.75;3.75;26.90;36.50;;;;;;4964512;28;11584;-71
2022/05/26 08:52:24;;;;;;;;;4.00;4.00;27.50;36.00;;;;;;4990882;28;11517;-79
2022/05/26 08:55:19;;;;;;;;;2.00;2.00;27.80;35.70;;;;;;4975581;28;11555;-76
2022/05/26 08:58:04;;;;;;;;;2.00;2.00;27.90;34.20;;;;;;4975390;28;11523;-76
2022/05/26 09:00:30;;;;;;;;;3.00;3.00;27.50;32.90;;;;;;4975665;28;11529;-78
2022/05/26 09:02:59;;;;;;;;;2.00;2.00;27.60;34.60;;;;;;4975729;28;12228;-78
2022/05/26 09:05:30;;;;;;;;;2.00;2.00;28.10;32.40;;;;;;4975642;28;11496;-78
2022/05/26 09:13:48;;;;;;;;;2.00;2.00;27.50;31.20;;;;;;4975605;28;12120;-75
2022/05/26 09:16:14;;;;;;;;;2.50;2.50;27.80;30.00;;;;;;4975665;28;11501;-74
2022/05/26 09:18:41;;;;;;;;;2.25;2.25;28.10;31.60;;;;;;4975834;28;8793;-77
2022/05/26 09:21:22;;;;;;;;;3.00;3.00;28.70;32.50;;;;;;4975592;28;11527;-73
2022/05/26 09:23:49;;;;;;;;;3.00;3.00;28.90;32.00;;;;;;4975455;28;11485;-76
2022/05/26 09:26:22;;;;;;;;;3.25;3.25;28.80;31.10;;;;;;4975447;28;11511;-75
2022/05/26 09:28:54;;;;;;;;;3.00;3.00;28.80;32.50;;;;;;4975509;28;11599;-74
2022/05/26 09:31:27;;;;;;;;;2.00;2.00;28.20;31.90;;;;;;4975556;28;11470;-74
2022/05/26 09:34:08;;;;;;;;;2.50;2.50;28.00;33.20;;;;;;4990228;28;11668;-74
2022/05/26 09:36:42;;;;;;;;;2.25;2.25;28.30;33.10;;;;;;4975353;28;11593;-74
2022/05/26 09:39:09;;;;;;;;;3.00;3.00;28.60;32.20;;;;;;4975472;28;11489;-74
2022/05/26 09:41:48;;;;;;;;;2.75;2.75;28.80;32.00;;;;;;4975495;28;11479;-73
2022/05/26 09:44:22;;;;;;;;;2.00;2.00;28.90;31.90;;;;;;4975325;28;11695;-75
2022/05/26 09:46:51;;;;;;;;;2.00;2.00;28.80;30.50;;;;;;4979411;28;11543;-78
2022/05/26 09:49:23;;;;;;;;;2.00;2.00;28.90;31.70;;;;;;4979257;28;11484;-80
2022/05/26 09:51:49;;;;;;;;;3.00;3.00;28.50;30.20;;;;;;4979210;28;11673;-78
2022/05/26 09:54:28;;;;;;;;;2.00;2.00;28.40;30.90;;;;;;4979367;28;11485;-80
2022/05/26 09:56:54;;;;;;;;;2.00;2.00;29.20;31.10;;;;;;4979200;28;11505;-79
2022/05/26 09:59:39;;;;;;;;;2.50;2.50;28.70;29.90;;;;;;4980053;28;11522;-75
2022/05/26 10:02:17;;;;;;;;;3.00;3.00;29.20;30.30;;;;;;4979186;28;12205;-75
2022/05/26 10:04:48;;;;;;;;;2.00;2.00;29.60;29.90;;;;;;4979015;28;12306;-78
2022/05/26 10:07:39;;;;;;;;;3.25;3.25;29.90;28.90;;;;;;4978925;28;11578;-76
2022/05/26 10:10:31;;;;;;;;;4.50;4.50;30.40;28.90;;;;;;4968019;28;11513;-73
2022/05/26 10:13:22;;;;;;;;;3.00;3.00;30.50;27.90;;;;;;4976791;28;12125;-75
2022/05/26 10:16:15;;;;;;;;;19.00;18.67;30.50;27.50;;;;;;4975614;28;11499;-75
2022/05/26 10:19:04;;;;;;;;;4.00;4.00;31.00;27.10;;;;;;4977572;28;8805;-75
2022/05/26 10:21:53;;;;;;;;;5.00;5.00;31.00;25.50;;;;;;4974871;28;11530;-74
2022/05/26 10:24:35;;;;;;;;;5.00;5.00;31.20;25.70;;;;;;4961514;28;11511;-74
2022/05/26 10:27:27;;;;;;;;;2.50;2.50;31.30;26.20;;;;;;4974715;28;11467;-80
2022/05/26 10:30:14;;;;;;;;;3.00;3.00;31.70;25.90;;;;;;4978446;28;11531;-79
2022/05/26 10:32:46;;;;;;;;;2.25;2.25;31.30;27.10;;;;;;4978950;28;11496;-79
2022/05/26 10:35:45;;;;;;;;;2.00;2.00;30.90;25.80;;;;;;4978254;28;11503;-79
2022/05/26 10:38:23;;;;;;;;;2.00;2.00;31.20;25.60;;;;;;4978472;28;11466;-80
2022/05/26 10:41:33;;;;;;;;;2.00;2.00;31.20;25.60;;;;;;4978294;28;11606;-78
2022/05/26 10:44:23;;;;;;;;;2.00;2.00;31.40;26.30;;;;;;4978282;28;12177;-80
2022/05/26 10:47:12;;;;;;;;;2.00;2.00;32.10;26.50;;;;;;4978036;28;11489;-78
2022/05/26 10:49:51;;;;;;;;;2.50;2.50;32.50;24.90;;;;;;4977944;28;11485;-79
2022/05/26 10:52:40;;;;;;;;;2.00;2.00;33.10;25.50;;;;;;4978128;28;11479;-80
2022/05/26 10:55:11;;;;;;;;;1.50;1.50;33.40;24.40;;;;;;4977920;28;11596;-78
2022/05/26 10:57:40;;;;;;;;;3.00;3.00;33.20;24.00;;;;;;4977400;28;11608;-79
2022/05/26 11:00:10;;;;;;;;;4.00;4.00;33.30;24.70;;;;;;4975453;28;11627;-81
2022/05/26 11:02:47;;;;;;;;;2.00;2.00;33.50;24.90;;;;;;4969938;28;11521;-80
2022/05/26 11:05:23;;;;;;;;;1.00;1.00;33.70;24.00;;;;;;4967748;28;12183;-79
2022/05/26 11:08:10;;;;;;;;;3.00;3.00;33.80;23.60;;;;;;4971480;28;12107;-80
2022/05/26 11:10:50;;;;;;;;;2.00;2.00;34.20;24.20;;;;;;4975395;28;11513;-79
2022/05/26 11:13:37;;;;;;;;;2.00;2.00;33.50;22.80;;;;;;4969158;28;11649;-83
2022/05/26 11:19:21;;;;;;;;;2.00;2.00;34.20;22.60;;;;;;4977170;28;11470;-84
2022/05/26 11:21:47;;;;;;;;;2.00;2.00;33.50;23.30;;;;;;4975427;28;11477;-82
2022/05/26 11:24:13;;;;;;;;;2.00;2.00;33.90;22.90;;;;;;4974165;28;11538;-78
2022/05/26 11:26:47;;;;;;;;;3.00;3.00;33.90;23.00;;;;;;4975003;28;8785;-81
2022/05/26 11:29:16;;;;;;;;;1.00;1.00;34.60;23.40;;;;;;4973560;28;11521;-81
2022/05/26 11:37:40;;;;;;;;;3.00;3.00;34.80;22.10;;;;;;4972837;28;12168;-82
2022/05/26 11:40:32;;;;;;;;;2.75;2.75;34.70;22.10;;;;;;4970665;28;11586;-81
2022/05/26 11:42:59;;;;;;;;;1.25;1.25;34.80;22.30;;;;;;4966290;28;11480;-79
2022/05/26 11:45:35;;;;;;;;;4.00;4.00;35.10;23.20;;;;;;4967404;28;11500;-79
2022/05/26 11:48:04;;;;;;;;;4.00;4.00;36.10;22.40;;;;;;4967549;28;12308;-79
2022/05/26 11:50:48;;;;;;;;;0.00;0.00;36.10;21.60;;;;;;4969010;28;11610;-76
2022/05/26 11:53:38;;;;;;;;;3.00;3.00;37.40;20.60;;;;;;4976701;28;12175;-78
2022/05/26 11:56:28;;;;;;;;;1.50;1.50;43.90;19.00;;;;;;4973535;28;11501;-79
2022/05/26 11:59:21;;;;;;;;;1.50;1.50;50.50;16.80;;;;;;4974286;28;11505;-76
2022/05/26 12:01:59;;;;;;;;;2.75;2.75;54.10;14.50;;;;;;4967959;28;11506;-78
2022/05/26 12:04:40;;;;;;;;;2.25;2.25;55.60;12.90;;;;;;4975558;28;11525;-77
2022/05/26 12:07:15;;;;;;;;;3.00;3.00;51.10;12.10;;;;;;4975765;28;11713;-78
2022/05/26 12:09:46;;;;;;;;;2.00;2.00;47.10;14.80;;;;;;4974468;28;11498;-78
2022/05/26 12:12:17;;;;;;;;;1.75;1.75;44.10;15.70;;;;;;4973683;28;11484;-78
2022/05/26 12:14:44;;;;;;;;;2.75;2.75;41.60;16.30;;;;;;4974894;28;11518;-78
2022/05/26 12:17:32;;;;;;;;;2.00;2.00;40.00;18.20;;;;;;4973453;28;11491;-77
2022/05/26 12:20:03;;;;;;;;;2.00;2.00;39.60;19.00;;;;;;4969166;28;11541;-78
2022/05/26 12:22:41;;;;;;;;;2.75;2.75;38.90;19.70;;;;;;4972173;28;11476;-78
2022/05/26 12:25:23;;;;;;;;;1.75;1.75;38.50;20.30;;;;;;4968713;28;11473;-78
2022/05/26 12:27:49;;;;;;;;;1.75;1.75;38.20;20.20;;;;;;4981553;28;11509;-78
2022/05/26 12:30:41;;;;;;;;;1.00;1.00;37.10;19.80;;;;;;4956900;28;11546;-79
2022/05/26 12:33:23;;;;;;;;;1.75;1.75;37.00;20.50;;;;;;4941101;28;8947;-77
2022/05/26 12:36:24;;;;;;;;;3.00;3.00;37.30;20.50;;;;;;4956854;28;11526;-79
2022/05/26 12:38:55;;;;;;;;;2.00;2.00;36.70;20.90;;;;;;4916397;29;11555;-76
2022/05/26 12:41:42;;;;;;;;;2.25;2.25;36.20;21.60;;;;;;4968568;28;11641;-77
2022/05/26 12:44:32;;;;;;;;;2.00;2.00;36.00;22.10;;;;;;4968415;28;11629;-79
2022/05/26 12:47:29;;;;;;;;;2.00;2.00;36.10;21.20;;;;;;4964206;28;11523;-76
2022/05/26 12:50:18;;;;;;;;;2.25;2.25;35.90;21.00;;;;;;4971717;28;11577;-75
2022/05/26 12:53:09;;;;;;;;;2.00;2.00;36.20;21.30;;;;;;4961840;28;11521;-77
2022/05/26 12:55:53;;;;;;;;;3.00;3.00;36.30;20.40;;;;;;4962999;28;11512;-79
2022/05/26 12:58:20;;;;;;;;;0.75;0.75;35.40;21.20;;;;;;4967792;28;12291;-80
2022/05/26 13:00:49;;;;;;;;;2.25;2.25;35.80;22.10;;;;;;4956459;28;11526;-79
2022/05/26 13:03:39;;;;;;;;;2.00;2.00;36.20;21.80;;;;;;4971202;28;11534;-81
2022/05/26 13:06:12;;;;;;;;;1.75;1.75;36.50;21.00;;;;;;4956264;28;11614;-80
2022/05/26 13:08:48;;;;;;;;;2.75;2.75;36.90;21.60;;;;;;4955233;28;11574;-79
2022/05/26 13:11:17;;;;;;;;;2.00;2.00;36.50;20.40;;;;;;4956484;28;12199;-77
2022/05/26 13:13:50;;;;;;;;;2.75;2.75;36.50;21.30;;;;;;4958249;28;11620;-76
2022/05/26 13:16:21;;;;;;;;;1.75;1.75;36.80;21.20;;;;;;4975631;28;11494;-76
2022/05/26 13:18:47;;;;;;;;;2.25;2.25;37.10;20.20;;;;;;4969318;28;11487;-77
2022/05/26 13:21:29;;;;;;;;;2.75;2.75;37.20;20.70;;;;;;4964497;28;11584;-77
2022/05/26 13:23:55;;;;;;;;;1.75;1.75;37.30;20.70;;;;;;4974672;28;8801;-76
2022/05/26 13:26:22;;;;;;;;;2.75;2.75;36.20;21.30;;;;;;4975543;28;11516;-76
2022/05/26 13:28:53;;;;;;;;;3.00;3.00;36.40;21.40;;;;;;4974201;28;11495;-77
2022/05/26 13:34:08;;;;;;;;;1.75;1.75;36.00;21.70;;;;;;4975188;28;11525;-78
2022/05/26 13:36:37;;;;;;;;;1.00;1.00;35.80;21.60;;;;;;4975579;28;11512;-79
2022/05/26 13:39:17;;;;;;;;;2.00;2.00;35.80;21.20;;;;;;4975537;28;11498;-80
2022/05/26 13:41:45;;;;;;;;;3.75;3.75;35.80;20.60;;;;;;4974652;28;11507;-79
2022/05/26 13:44:18;;;;;;;;;2.75;2.75;35.90;21.10;;;;;;4975348;28;11530;-75
2022/05/26 13:46:49;;;;;;;;;3.25;3.25;36.30;20.70;;;;;;4975129;28;11574;-80
2022/05/26 13:49:28;;;;;;;;;3.25;3.25;36.20;20.70;;;;;;4974994;28;11496;-79
2022/05/26 13:51:54;;;;;;;;;3.75;3.75;35.50;20.90;;;;;;4975132;28;11514;-80
2022/05/26 13:54:59;;;;;;;;;2.75;2.75;35.40;21.20;;;;;;4990197;28;11524;-83